sensor_id;sensor_type;location;lat;lon;timestamp;P1;durP1;ratioP1;P2;durP2;ratioP2
74293;SDS011;64044;59.904;10.738;2023-06-14T00:02:05;9.63;;;6.63;;
74293;SDS011;64044;59.904;10.738;2023-06-14T00:04:33;9.93;;;6.30;;
74293;SDS011;64044;59.904;10.738;2023-06-14T00:06:59;10.70;;;6.07;;
74293;SDS011;64044;59.904;10.738;2023-06-14T00:09:25;8.50;;;6.13;;
74293;SDS011;64044;59.904;10.738;2023-06-14T00:11:51;12.57;;;5.95;;
74293;SDS011;64044;59.904;10.738;2023-06-14T00:14:17;10.52;;;6.25;;
74293;SDS011;64044;59.904;10.738;2023-06-14T00:16:42;9.38;;;5.45;;
74293;SDS011;64044;59.904;10.738;2023-06-14T00:19:08;11.50;;;5.85;;
74293;SDS011;64044;59.904;10.738;2023-06-14T00:21:35;8.70;;;5.35;;
74293;SDS011;64044;59.904;10.738;2023-06-14T00:24:04;13.02;;;5.85;;
74293;SDS011;64044;59.904;10.738;2023-06-14T00:26:30;12.35;;;5.20;;
74293;SDS011;64044;59.904;10.738;2023-06-14T00:28:56;8.43;;;5.72;;
74293;SDS011;64044;59.904;10.738;2023-06-14T00:31:22;9.05;;;5.10;;
74293;SDS011;64044;59.904;10.738;2023-06-14T00:33:48;9.30;;;4.75;;
74293;SDS011;64044;59.904;10.738;2023-06-14T00:36:13;7.15;;;4.45;;
74293;SDS011;64044;59.904;10.738;2023-06-14T00:38:39;8.05;;;4.47;;
74293;SDS011;64044;59.904;10.738;2023-06-14T00:41:05;7.28;;;4.28;;
74293;SDS011;64044;59.904;10.738;2023-06-14T00:43:31;5.97;;;4.15;;
74293;SDS011;64044;59.904;10.738;2023-06-14T00:45:57;9.85;;;4.28;;
74293;SDS011;64044;59.904;10.738;2023-06-14T00:48:23;7.75;;;4.50;;
74293;SDS011;64044;59.904;10.738;2023-06-14T00:50:50;6.03;;;4.13;;
74293;SDS011;64044;59.904;10.738;2023-06-14T00:53:17;6.25;;;3.78;;
74293;SDS011;64044;59.904;10.738;2023-06-14T00:55:45;5.45;;;3.80;;
74293;SDS011;64044;59.904;10.738;2023-06-14T00:58:12;7.40;;;3.95;;
74293;SDS011;64044;59.904;10.738;2023-06-14T01:00:38;9.75;;;4.30;;
74293;SDS011;64044;59.904;10.738;2023-06-14T01:03:04;6.88;;;4.22;;
74293;SDS011;64044;59.904;10.738;2023-06-14T01:05:30;10.15;;;4.78;;
74293;SDS011;64044;59.904;10.738;2023-06-14T01:13:40;12.20;;;5.78;;
74293;SDS011;64044;59.904;10.738;2023-06-14T01:16:10;12.80;;;5.53;;
74293;SDS011;64044;59.904;10.738;2023-06-14T01:18:36;6.70;;;4.72;;
74293;SDS011;64044;59.904;10.738;2023-06-14T01:21:02;7.50;;;5.07;;
74293;SDS011;64044;59.904;10.738;2023-06-14T01:23:30;12.45;;;6.63;;
74293;SDS011;64044;59.904;10.738;2023-06-14T01:26:00;8.20;;;6.03;;
74293;SDS011;64044;59.904;10.738;2023-06-14T01:28:28;10.85;;;4.90;;
74293;SDS011;64044;59.904;10.738;2023-06-14T01:30:59;6.05;;;4.35;;
74293;SDS011;64044;59.904;10.738;2023-06-14T01:33:29;7.43;;;5.17;;
74293;SDS011;64044;59.904;10.738;2023-06-14T01:35:56;7.05;;;5.78;;
74293;SDS011;64044;59.904;10.738;2023-06-14T01:38:23;7.38;;;4.88;;
74293;SDS011;64044;59.904;10.738;2023-06-14T01:40:50;7.07;;;4.18;;
74293;SDS011;64044;59.904;10.738;2023-06-14T01:43:19;8.50;;;4.57;;
74293;SDS011;64044;59.904;10.738;2023-06-14T01:45:47;7.50;;;4.95;;
74293;SDS011;64044;59.904;10.738;2023-06-14T01:48:16;7.50;;;4.67;;
74293;SDS011;64044;59.904;10.738;2023-06-14T01:50:42;9.38;;;4.68;;
74293;SDS011;64044;59.904;10.738;2023-06-14T01:53:08;9.10;;;4.45;;
74293;SDS011;64044;59.904;10.738;2023-06-14T01:55:35;6.13;;;4.38;;
74293;SDS011;64044;59.904;10.738;2023-06-14T01:58:05;6.10;;;4.57;;
74293;SDS011;64044;59.904;10.738;2023-06-14T02:00:31;8.52;;;5.53;;
74293;SDS011;64044;59.904;10.738;2023-06-14T02:02:57;8.30;;;5.50;;
74293;SDS011;64044;59.904;10.738;2023-06-14T02:05:23;8.80;;;5.90;;
74293;SDS011;64044;59.904;10.738;2023-06-14T02:07:49;12.35;;;5.65;;
74293;SDS011;64044;59.904;10.738;2023-06-14T02:10:15;7.82;;;5.80;;
74293;SDS011;64044;59.904;10.738;2023-06-14T02:12:42;12.77;;;6.25;;
74293;SDS011;64044;59.904;10.738;2023-06-14T02:15:08;8.82;;;6.10;;
74293;SDS011;64044;59.904;10.738;2023-06-14T02:17:42;8.18;;;5.43;;
74293;SDS011;64044;59.904;10.738;2023-06-14T02:20:08;9.68;;;6.45;;
74293;SDS011;64044;59.904;10.738;2023-06-14T02:22:34;11.40;;;6.38;;
74293;SDS011;64044;59.904;10.738;2023-06-14T02:25:00;8.07;;;5.30;;
74293;SDS011;64044;59.904;10.738;2023-06-14T02:27:26;9.35;;;5.32;;
74293;SDS011;64044;59.904;10.738;2023-06-14T02:29:51;11.07;;;6.03;;
74293;SDS011;64044;59.904;10.738;2023-06-14T02:32:17;9.25;;;5.40;;
74293;SDS011;64044;59.904;10.738;2023-06-14T02:34:43;8.15;;;5.25;;
74293;SDS011;64044;59.904;10.738;2023-06-14T02:37:09;8.27;;;5.45;;
74293;SDS011;64044;59.904;10.738;2023-06-14T02:39:36;7.80;;;5.07;;
74293;SDS011;64044;59.904;10.738;2023-06-14T02:42:02;8.65;;;5.90;;
74293;SDS011;64044;59.904;10.738;2023-06-14T02:44:27;10.77;;;6.28;;
74293;SDS011;64044;59.904;10.738;2023-06-14T02:46:54;10.15;;;5.60;;
74293;SDS011;64044;59.904;10.738;2023-06-14T02:49:21;8.73;;;5.88;;
74293;SDS011;64044;59.904;10.738;2023-06-14T02:51:47;11.07;;;6.32;;
74293;SDS011;64044;59.904;10.738;2023-06-14T02:54:13;11.65;;;7.00;;
74293;SDS011;64044;59.904;10.738;2023-06-14T02:56:39;16.05;;;6.43;;
74293;SDS011;64044;59.904;10.738;2023-06-14T02:59:05;9.65;;;6.55;;
74293;SDS011;64044;59.904;10.738;2023-06-14T03:01:32;9.40;;;5.82;;
74293;SDS011;64044;59.904;10.738;2023-06-14T03:04:06;10.25;;;5.95;;
74293;SDS011;64044;59.904;10.738;2023-06-14T03:06:34;12.20;;;6.55;;
74293;SDS011;64044;59.904;10.738;2023-06-14T03:09:01;9.40;;;6.28;;
74293;SDS011;64044;59.904;10.738;2023-06-14T03:11:31;9.35;;;6.43;;
74293;SDS011;64044;59.904;10.738;2023-06-14T03:13:57;14.38;;;6.30;;
74293;SDS011;64044;59.904;10.738;2023-06-14T03:16:22;10.85;;;6.22;;
74293;SDS011;64044;59.904;10.738;2023-06-14T03:18:52;10.55;;;6.53;;
74293;SDS011;64044;59.904;10.738;2023-06-14T03:21:18;12.35;;;6.55;;
74293;SDS011;64044;59.904;10.738;2023-06-14T03:23:45;10.88;;;6.60;;
74293;SDS011;64044;59.904;10.738;2023-06-14T03:26:11;11.32;;;5.95;;
74293;SDS011;64044;59.904;10.738;2023-06-14T03:31:09;11.98;;;6.70;;
74293;SDS011;64044;59.904;10.738;2023-06-14T03:33:34;11.00;;;5.45;;
74293;SDS011;64044;59.904;10.738;2023-06-14T03:36:01;10.38;;;5.65;;
74293;SDS011;64044;59.904;10.738;2023-06-14T03:38:27;10.00;;;5.25;;
74293;SDS011;64044;59.904;10.738;2023-06-14T03:40:53;8.10;;;6.15;;
74293;SDS011;64044;59.904;10.738;2023-06-14T03:43:19;9.90;;;6.47;;
74293;SDS011;64044;59.904;10.738;2023-06-14T03:45:44;7.63;;;5.97;;
74293;SDS011;64044;59.904;10.738;2023-06-14T03:48:10;10.07;;;5.90;;
74293;SDS011;64044;59.904;10.738;2023-06-14T03:50:36;9.68;;;5.80;;
74293;SDS011;64044;59.904;10.738;2023-06-14T03:53:05;9.02;;;5.05;;
74293;SDS011;64044;59.904;10.738;2023-06-14T03:55:31;7.25;;;5.65;;
74293;SDS011;64044;59.904;10.738;2023-06-14T03:57:58;9.40;;;5.72;;
74293;SDS011;64044;59.904;10.738;2023-06-14T04:00:24;8.40;;;5.55;;
74293;SDS011;64044;59.904;10.738;2023-06-14T04:02:50;10.43;;;6.28;;
74293;SDS011;64044;59.904;10.738;2023-06-14T04:05:16;10.10;;;5.82;;
74293;SDS011;64044;59.904;10.738;2023-06-14T04:07:44;9.55;;;5.72;;
74293;SDS011;64044;59.904;10.738;2023-06-14T04:10:11;11.82;;;6.32;;
74293;SDS011;64044;59.904;10.738;2023-06-14T04:12:38;8.45;;;5.88;;
74293;SDS011;64044;59.904;10.738;2023-06-14T04:15:04;10.25;;;5.85;;
74293;SDS011;64044;59.904;10.738;2023-06-14T04:17:33;9.80;;;6.38;;
74293;SDS011;64044;59.904;10.738;2023-06-14T04:20:00;10.98;;;5.72;;
74293;SDS011;64044;59.904;10.738;2023-06-14T04:22:29;15.80;;;6.22;;
74293;SDS011;64044;59.904;10.738;2023-06-14T04:24:55;10.90;;;6.05;;
74293;SDS011;64044;59.904;10.738;2023-06-14T04:27:22;8.60;;;5.57;;
74293;SDS011;64044;59.904;10.738;2023-06-14T04:29:51;11.63;;;5.93;;
74293;SDS011;64044;59.904;10.738;2023-06-14T04:32:23;8.90;;;6.10;;
74293;SDS011;64044;59.904;10.738;2023-06-14T04:34:51;9.40;;;5.80;;
74293;SDS011;64044;59.904;10.738;2023-06-14T04:37:20;7.93;;;5.32;;
74293;SDS011;64044;59.904;10.738;2023-06-14T04:39:47;6.97;;;5.20;;
74293;SDS011;64044;59.904;10.738;2023-06-14T04:42:13;8.93;;;4.78;;
74293;SDS011;64044;59.904;10.738;2023-06-14T04:44:44;8.20;;;5.60;;
74293;SDS011;64044;59.904;10.738;2023-06-14T04:47:10;7.53;;;5.20;;
74293;SDS011;64044;59.904;10.738;2023-06-14T04:49:37;8.50;;;5.75;;
74293;SDS011;64044;59.904;10.738;2023-06-14T04:52:05;8.98;;;4.90;;
74293;SDS011;64044;59.904;10.738;2023-06-14T04:54:32;7.63;;;4.60;;
74293;SDS011;64044;59.904;10.738;2023-06-14T04:56:58;6.97;;;4.28;;
74293;SDS011;64044;59.904;10.738;2023-06-14T04:59:24;5.82;;;4.70;;
74293;SDS011;64044;59.904;10.738;2023-06-14T05:01:50;10.45;;;4.43;;
74293;SDS011;64044;59.904;10.738;2023-06-14T05:04:16;7.72;;;4.68;;
74293;SDS011;64044;59.904;10.738;2023-06-14T05:06:43;10.02;;;4.90;;
74293;SDS011;64044;59.904;10.738;2023-06-14T05:09:15;6.30;;;4.53;;
74293;SDS011;64044;59.904;10.738;2023-06-14T05:11:42;6.57;;;4.75;;
74293;SDS011;64044;59.904;10.738;2023-06-14T05:14:09;8.02;;;4.93;;
74293;SDS011;64044;59.904;10.738;2023-06-14T05:16:38;7.35;;;4.80;;
74293;SDS011;64044;59.904;10.738;2023-06-14T05:19:04;7.32;;;4.60;;
74293;SDS011;64044;59.904;10.738;2023-06-14T05:21:30;6.43;;;4.57;;
74293;SDS011;64044;59.904;10.738;2023-06-14T05:23:58;7.13;;;4.35;;
74293;SDS011;64044;59.904;10.738;2023-06-14T05:26:24;7.10;;;4.65;;
74293;SDS011;64044;59.904;10.738;2023-06-14T05:28:54;4.95;;;4.00;;
74293;SDS011;64044;59.904;10.738;2023-06-14T05:31:21;9.00;;;4.22;;
74293;SDS011;64044;59.904;10.738;2023-06-14T05:33:49;7.85;;;4.40;;
74293;SDS011;64044;59.904;10.738;2023-06-14T05:36:15;9.13;;;4.57;;
74293;SDS011;64044;59.904;10.738;2023-06-14T05:38:40;13.50;;;4.63;;
74293;SDS011;64044;59.904;10.738;2023-06-14T05:41:06;8.70;;;4.90;;
74293;SDS011;64044;59.904;10.738;2023-06-14T05:43:32;6.80;;;5.28;;
74293;SDS011;64044;59.904;10.738;2023-06-14T05:45:57;7.18;;;4.65;;
74293;SDS011;64044;59.904;10.738;2023-06-14T05:48:23;7.07;;;4.60;;
74293;SDS011;64044;59.904;10.738;2023-06-14T05:50:49;10.30;;;5.20;;
74293;SDS011;64044;59.904;10.738;2023-06-14T05:53:15;6.80;;;4.40;;
74293;SDS011;64044;59.904;10.738;2023-06-14T05:55:40;6.82;;;4.30;;
74293;SDS011;64044;59.904;10.738;2023-06-14T05:58:06;7.25;;;4.55;;
74293;SDS011;64044;59.904;10.738;2023-06-14T06:00:32;4.70;;;4.15;;
74293;SDS011;64044;59.904;10.738;2023-06-14T06:02:58;4.35;;;3.70;;
74293;SDS011;64044;59.904;10.738;2023-06-14T06:05:24;8.57;;;4.57;;
74293;SDS011;64044;59.904;10.738;2023-06-14T06:07:50;4.93;;;4.10;;
74293;SDS011;64044;59.904;10.738;2023-06-14T06:10:15;14.80;;;4.80;;
74293;SDS011;64044;59.904;10.738;2023-06-14T06:12:41;9.55;;;3.85;;
74293;SDS011;64044;59.904;10.738;2023-06-14T06:15:07;7.47;;;3.90;;
74293;SDS011;64044;59.904;10.738;2023-06-14T06:17:37;3.83;;;3.35;;
74293;SDS011;64044;59.904;10.738;2023-06-14T06:20:03;5.10;;;3.50;;
74293;SDS011;64044;59.904;10.738;2023-06-14T06:22:31;15.98;;;4.00;;
74293;SDS011;64044;59.904;10.738;2023-06-14T06:24:57;6.55;;;3.90;;
74293;SDS011;64044;59.904;10.738;2023-06-14T06:27:22;4.50;;;3.65;;
74293;SDS011;64044;59.904;10.738;2023-06-14T06:29:48;6.13;;;4.18;;
74293;SDS011;64044;59.904;10.738;2023-06-14T06:32:14;5.20;;;4.30;;
74293;SDS011;64044;59.904;10.738;2023-06-14T06:34:41;7.43;;;4.57;;
74293;SDS011;64044;59.904;10.738;2023-06-14T06:37:06;4.40;;;3.67;;
74293;SDS011;64044;59.904;10.738;2023-06-14T06:39:32;5.05;;;3.63;;
74293;SDS011;64044;59.904;10.738;2023-06-14T06:41:58;5.55;;;3.95;;
74293;SDS011;64044;59.904;10.738;2023-06-14T06:44:24;5.65;;;3.53;;
74293;SDS011;64044;59.904;10.738;2023-06-14T06:46:50;4.97;;;3.65;;
74293;SDS011;64044;59.904;10.738;2023-06-14T06:49:15;7.65;;;3.83;;
74293;SDS011;64044;59.904;10.738;2023-06-14T06:51:41;6.35;;;4.30;;
74293;SDS011;64044;59.904;10.738;2023-06-14T06:54:11;9.23;;;5.15;;
74293;SDS011;64044;59.904;10.738;2023-06-14T06:56:36;5.75;;;3.95;;
74293;SDS011;64044;59.904;10.738;2023-06-14T06:59:02;12.60;;;4.22;;
74293;SDS011;64044;59.904;10.738;2023-06-14T07:01:28;7.00;;;4.28;;
74293;SDS011;64044;59.904;10.738;2023-06-14T07:03:54;6.63;;;4.65;;
74293;SDS011;64044;59.904;10.738;2023-06-14T07:06:20;8.30;;;5.07;;
74293;SDS011;64044;59.904;10.738;2023-06-14T07:08:46;7.10;;;4.80;;
74293;SDS011;64044;59.904;10.738;2023-06-14T07:11:15;13.20;;;4.93;;
74293;SDS011;64044;59.904;10.738;2023-06-14T07:13:41;8.98;;;5.20;;
74293;SDS011;64044;59.904;10.738;2023-06-14T07:16:07;6.13;;;4.53;;
74293;SDS011;64044;59.904;10.738;2023-06-14T07:18:32;5.90;;;4.55;;
74293;SDS011;64044;59.904;10.738;2023-06-14T07:20:58;6.90;;;5.15;;
74293;SDS011;64044;59.904;10.738;2023-06-14T07:23:24;9.32;;;5.43;;
74293;SDS011;64044;59.904;10.738;2023-06-14T07:25:50;5.15;;;4.03;;
74293;SDS011;64044;59.904;10.738;2023-06-14T07:28:16;6.80;;;4.70;;
74293;SDS011;64044;59.904;10.738;2023-06-14T07:30:43;8.70;;;5.25;;
74293;SDS011;64044;59.904;10.738;2023-06-14T07:33:09;6.65;;;4.85;;
74293;SDS011;64044;59.904;10.738;2023-06-14T07:35:36;5.47;;;4.63;;
74293;SDS011;64044;59.904;10.738;2023-06-14T07:38:02;5.97;;;4.97;;
74293;SDS011;64044;59.904;10.738;2023-06-14T07:40:27;6.65;;;4.82;;
74293;SDS011;64044;59.904;10.738;2023-06-14T07:42:53;6.93;;;4.75;;
74293;SDS011;64044;59.904;10.738;2023-06-14T07:45:19;9.85;;;5.40;;
74293;SDS011;64044;59.904;10.738;2023-06-14T07:47:45;6.68;;;5.10;;
74293;SDS011;64044;59.904;10.738;2023-06-14T07:50:11;8.88;;;5.82;;
74293;SDS011;64044;59.904;10.738;2023-06-14T07:52:38;13.45;;;6.45;;
74293;SDS011;64044;59.904;10.738;2023-06-14T07:55:04;11.35;;;6.07;;
74293;SDS011;64044;59.904;10.738;2023-06-14T07:57:30;8.15;;;5.85;;
74293;SDS011;64044;59.904;10.738;2023-06-14T07:59:56;11.18;;;5.97;;
74293;SDS011;64044;59.904;10.738;2023-06-14T08:02:22;8.10;;;5.55;;
74293;SDS011;64044;59.904;10.738;2023-06-14T08:04:47;7.78;;;5.32;;
74293;SDS011;64044;59.904;10.738;2023-06-14T08:07:13;7.57;;;5.60;;
74293;SDS011;64044;59.904;10.738;2023-06-14T08:09:39;10.27;;;6.00;;
74293;SDS011;64044;59.904;10.738;2023-06-14T08:14:57;8.45;;;5.10;;
74293;SDS011;64044;59.904;10.738;2023-06-14T08:17:22;9.50;;;5.68;;
74293;SDS011;64044;59.904;10.738;2023-06-14T08:19:48;7.95;;;5.32;;
74293;SDS011;64044;59.904;10.738;2023-06-14T08:22:14;7.85;;;5.53;;
74293;SDS011;64044;59.904;10.738;2023-06-14T08:24:40;11.90;;;5.43;;
74293;SDS011;64044;59.904;10.738;2023-06-14T08:27:06;12.02;;;5.03;;
74293;SDS011;64044;59.904;10.738;2023-06-14T08:29:32;6.30;;;4.70;;
74293;SDS011;64044;59.904;10.738;2023-06-14T08:31:58;11.88;;;5.47;;
74293;SDS011;64044;59.904;10.738;2023-06-14T08:34:24;5.68;;;4.93;;
74293;SDS011;64044;59.904;10.738;2023-06-14T08:36:50;8.43;;;4.97;;
74293;SDS011;64044;59.904;10.738;2023-06-14T08:39:16;8.07;;;5.28;;
74293;SDS011;64044;59.904;10.738;2023-06-14T08:41:42;8.60;;;5.47;;
74293;SDS011;64044;59.904;10.738;2023-06-14T08:46:40;7.20;;;4.93;;
74293;SDS011;64044;59.904;10.738;2023-06-14T08:49:07;8.43;;;4.97;;
74293;SDS011;64044;59.904;10.738;2023-06-14T08:51:36;5.90;;;4.60;;
74293;SDS011;64044;59.904;10.738;2023-06-14T08:54:02;7.38;;;5.53;;
74293;SDS011;64044;59.904;10.738;2023-06-14T08:56:29;12.52;;;5.00;;
74293;SDS011;64044;59.904;10.738;2023-06-14T08:58:56;7.22;;;5.30;;
74293;SDS011;64044;59.904;10.738;2023-06-14T09:01:26;7.10;;;5.10;;
74293;SDS011;64044;59.904;10.738;2023-06-14T09:03:52;7.38;;;5.80;;
74293;SDS011;64044;59.904;10.738;2023-06-14T09:06:20;8.15;;;5.93;;
74293;SDS011;64044;59.904;10.738;2023-06-14T09:08:48;9.93;;;5.22;;
74293;SDS011;64044;59.904;10.738;2023-06-14T09:11:15;11.23;;;6.35;;
74293;SDS011;64044;59.904;10.738;2023-06-14T09:13:43;9.55;;;6.05;;
74293;SDS011;64044;59.904;10.738;2023-06-14T09:16:11;9.88;;;5.57;;
74293;SDS011;64044;59.904;10.738;2023-06-14T09:18:37;8.63;;;5.57;;
74293;SDS011;64044;59.904;10.738;2023-06-14T09:21:12;8.30;;;5.70;;
74293;SDS011;64044;59.904;10.738;2023-06-14T09:23:43;7.35;;;5.40;;
74293;SDS011;64044;59.904;10.738;2023-06-14T09:26:14;8.02;;;6.35;;
74293;SDS011;64044;59.904;10.738;2023-06-14T09:28:48;10.40;;;6.63;;
74293;SDS011;64044;59.904;10.738;2023-06-14T09:31:19;10.50;;;6.22;;
74293;SDS011;64044;59.904;10.738;2023-06-14T09:33:46;9.25;;;6.60;;
74293;SDS011;64044;59.904;10.738;2023-06-14T09:36:17;11.13;;;5.57;;
74293;SDS011;64044;59.904;10.738;2023-06-14T09:38:52;8.43;;;6.30;;
74293;SDS011;64044;59.904;10.738;2023-06-14T09:41:19;5.65;;;4.95;;
74293;SDS011;64044;59.904;10.738;2023-06-14T09:43:46;7.35;;;5.40;;
74293;SDS011;64044;59.904;10.738;2023-06-14T09:46:12;9.75;;;5.15;;
74293;SDS011;64044;59.904;10.738;2023-06-14T09:48:38;6.97;;;4.93;;
74293;SDS011;64044;59.904;10.738;2023-06-14T09:51:08;5.95;;;4.47;;
74293;SDS011;64044;59.904;10.738;2023-06-14T09:53:35;7.68;;;4.57;;
74293;SDS011;64044;59.904;10.738;2023-06-14T09:56:02;7.68;;;5.10;;
74293;SDS011;64044;59.904;10.738;2023-06-14T09:58:30;6.55;;;5.28;;
74293;SDS011;64044;59.904;10.738;2023-06-14T10:00:57;9.20;;;5.18;;
74293;SDS011;64044;59.904;10.738;2023-06-14T10:03:25;10.43;;;6.10;;
74293;SDS011;64044;59.904;10.738;2023-06-14T10:05:58;8.02;;;5.38;;
74293;SDS011;64044;59.904;10.738;2023-06-14T10:08:27;9.30;;;5.85;;
74293;SDS011;64044;59.904;10.738;2023-06-14T10:10:58;13.18;;;5.95;;
74293;SDS011;64044;59.904;10.738;2023-06-14T10:13:25;9.32;;;6.18;;
74293;SDS011;64044;59.904;10.738;2023-06-14T10:18:48;12.80;;;5.95;;
74293;SDS011;64044;59.904;10.738;2023-06-14T10:24:01;15.10;;;5.88;;
74293;SDS011;64044;59.904;10.738;2023-06-14T10:26:31;8.60;;;5.45;;
74293;SDS011;64044;59.904;10.738;2023-06-14T10:29:01;7.85;;;5.70;;
74293;SDS011;64044;59.904;10.738;2023-06-14T10:31:42;10.15;;;5.35;;
74293;SDS011;64044;59.904;10.738;2023-06-14T10:34:22;11.15;;;5.65;;
74293;SDS011;64044;59.904;10.738;2023-06-14T10:36:50;13.88;;;5.65;;
74293;SDS011;64044;59.904;10.738;2023-06-14T10:39:42;6.68;;;5.43;;
74293;SDS011;64044;59.904;10.738;2023-06-14T10:42:11;7.80;;;5.00;;
74293;SDS011;64044;59.904;10.738;2023-06-14T10:47:06;9.05;;;4.25;;
74293;SDS011;64044;59.904;10.738;2023-06-14T10:49:41;7.30;;;5.23;;
74293;SDS011;64044;59.904;10.738;2023-06-14T10:52:08;8.88;;;4.47;;
74293;SDS011;64044;59.904;10.738;2023-06-14T10:57:29;12.45;;;8.55;;
74293;SDS011;64044;59.904;10.738;2023-06-14T10:59:57;10.68;;;5.75;;
74293;SDS011;64044;59.904;10.738;2023-06-14T11:05:23;9.20;;;4.75;;
74293;SDS011;64044;59.904;10.738;2023-06-14T11:10:56;13.65;;;4.63;;
74293;SDS011;64044;59.904;10.738;2023-06-14T11:13:25;5.75;;;4.10;;
74293;SDS011;64044;59.904;10.738;2023-06-14T11:15:51;6.18;;;4.10;;
74293;SDS011;64044;59.904;10.738;2023-06-14T11:20:50;7.80;;;4.22;;
74293;SDS011;64044;59.904;10.738;2023-06-14T11:23:16;5.85;;;3.97;;
74293;SDS011;64044;59.904;10.738;2023-06-14T11:25:41;8.75;;;5.10;;
74293;SDS011;64044;59.904;10.738;2023-06-14T11:28:07;5.53;;;4.15;;
74293;SDS011;64044;59.904;10.738;2023-06-14T11:30:33;6.50;;;4.05;;
74293;SDS011;64044;59.904;10.738;2023-06-14T11:32:59;5.70;;;4.03;;
74293;SDS011;64044;59.904;10.738;2023-06-14T11:35:25;4.30;;;3.65;;
74293;SDS011;64044;59.904;10.738;2023-06-14T11:37:54;5.63;;;3.97;;
74293;SDS011;64044;59.904;10.738;2023-06-14T11:40:23;3.40;;;2.95;;
74293;SDS011;64044;59.904;10.738;2023-06-14T11:42:53;6.53;;;3.95;;
74293;SDS011;64044;59.904;10.738;2023-06-14T11:45:24;10.63;;;3.80;;
74293;SDS011;64044;59.904;10.738;2023-06-14T11:47:50;4.32;;;3.20;;
74293;SDS011;64044;59.904;10.738;2023-06-14T11:50:16;5.18;;;3.53;;
74293;SDS011;64044;59.904;10.738;2023-06-14T11:52:42;3.63;;;2.97;;
74293;SDS011;64044;59.904;10.738;2023-06-14T11:55:07;4.72;;;3.58;;
74293;SDS011;64044;59.904;10.738;2023-06-14T11:57:34;3.42;;;2.97;;
74293;SDS011;64044;59.904;10.738;2023-06-14T12:00:04;6.57;;;3.70;;
74293;SDS011;64044;59.904;10.738;2023-06-14T12:02:36;4.50;;;3.50;;
74293;SDS011;64044;59.904;10.738;2023-06-14T12:05:06;4.93;;;3.60;;
74293;SDS011;64044;59.904;10.738;2023-06-14T12:07:38;5.70;;;3.47;;
74293;SDS011;64044;59.904;10.738;2023-06-14T12:10:07;5.88;;;4.10;;
74293;SDS011;64044;59.904;10.738;2023-06-14T12:12:38;6.78;;;3.50;;
74293;SDS011;64044;59.904;10.738;2023-06-14T12:15:05;4.00;;;3.30;;
74293;SDS011;64044;59.904;10.738;2023-06-14T12:17:35;7.88;;;3.25;;
74293;SDS011;64044;59.904;10.738;2023-06-14T12:20:07;4.55;;;3.00;;
74293;SDS011;64044;59.904;10.738;2023-06-14T12:22:39;4.30;;;3.03;;
74293;SDS011;64044;59.904;10.738;2023-06-14T12:25:22;4.13;;;3.08;;
74293;SDS011;64044;59.904;10.738;2023-06-14T12:27:52;13.38;;;3.95;;
74293;SDS011;64044;59.904;10.738;2023-06-14T12:30:21;3.42;;;2.95;;
74293;SDS011;64044;59.904;10.738;2023-06-14T12:32:47;4.00;;;2.78;;
74293;SDS011;64044;59.904;10.738;2023-06-14T12:35:13;3.10;;;2.78;;
74293;SDS011;64044;59.904;10.738;2023-06-14T12:37:40;4.13;;;3.13;;
74293;SDS011;64044;59.904;10.738;2023-06-14T12:40:05;4.00;;;3.10;;
74293;SDS011;64044;59.904;10.738;2023-06-14T12:42:32;4.13;;;2.72;;
74293;SDS011;64044;59.904;10.738;2023-06-14T12:45:01;4.13;;;2.78;;
74293;SDS011;64044;59.904;10.738;2023-06-14T12:47:27;4.07;;;2.97;;
74293;SDS011;64044;59.904;10.738;2023-06-14T12:49:53;2.78;;;2.53;;
74293;SDS011;64044;59.904;10.738;2023-06-14T12:52:19;3.08;;;2.80;;
74293;SDS011;64044;59.904;10.738;2023-06-14T12:54:44;3.75;;;2.95;;
74293;SDS011;64044;59.904;10.738;2023-06-14T12:57:10;4.10;;;2.80;;
74293;SDS011;64044;59.904;10.738;2023-06-14T12:59:36;3.10;;;2.55;;
74293;SDS011;64044;59.904;10.738;2023-06-14T13:02:12;4.40;;;3.17;;
74293;SDS011;64044;59.904;10.738;2023-06-14T13:04:40;4.40;;;2.90;;
74293;SDS011;64044;59.904;10.738;2023-06-14T13:07:05;3.45;;;2.88;;
74293;SDS011;64044;59.904;10.738;2023-06-14T13:09:31;4.20;;;2.70;;
74293;SDS011;64044;59.904;10.738;2023-06-14T13:11:57;4.82;;;2.80;;
74293;SDS011;64044;59.904;10.738;2023-06-14T13:14:23;3.65;;;3.00;;
74293;SDS011;64044;59.904;10.738;2023-06-14T13:16:49;4.22;;;3.25;;
74293;SDS011;64044;59.904;10.738;2023-06-14T13:19:15;3.17;;;2.80;;
74293;SDS011;64044;59.904;10.738;2023-06-14T13:21:40;4.32;;;2.95;;
74293;SDS011;64044;59.904;10.738;2023-06-14T13:24:32;3.95;;;2.78;;
74293;SDS011;64044;59.904;10.738;2023-06-14T13:26:58;6.32;;;2.95;;
74293;SDS011;64044;59.904;10.738;2023-06-14T13:29:24;5.78;;;2.75;;
74293;SDS011;64044;59.904;10.738;2023-06-14T13:31:51;4.90;;;2.80;;
74293;SDS011;64044;59.904;10.738;2023-06-14T13:34:17;4.53;;;2.55;;
74293;SDS011;64044;59.904;10.738;2023-06-14T13:36:43;3.38;;;2.75;;
74293;SDS011;64044;59.904;10.738;2023-06-14T13:39:09;3.40;;;2.63;;
74293;SDS011;64044;59.904;10.738;2023-06-14T13:41:36;4.03;;;3.08;;
74293;SDS011;64044;59.904;10.738;2023-06-14T13:44:01;4.47;;;2.80;;
74293;SDS011;64044;59.904;10.738;2023-06-14T13:46:30;4.35;;;2.85;;
74293;SDS011;64044;59.904;10.738;2023-06-14T13:48:56;6.72;;;2.83;;
74293;SDS011;64044;59.904;10.738;2023-06-14T13:51:23;3.40;;;2.55;;
74293;SDS011;64044;59.904;10.738;2023-06-14T13:53:49;3.35;;;2.83;;
74293;SDS011;64044;59.904;10.738;2023-06-14T13:56:15;4.78;;;2.80;;
74293;SDS011;64044;59.904;10.738;2023-06-14T13:58:41;3.13;;;2.65;;
74293;SDS011;64044;59.904;10.738;2023-06-14T14:01:08;4.95;;;2.40;;
74293;SDS011;64044;59.904;10.738;2023-06-14T14:03:34;3.65;;;2.97;;
74293;SDS011;64044;59.904;10.738;2023-06-14T14:06:03;5.40;;;3.17;;
74293;SDS011;64044;59.904;10.738;2023-06-14T14:08:29;4.30;;;3.10;;
74293;SDS011;64044;59.904;10.738;2023-06-14T14:10:55;4.35;;;3.05;;
74293;SDS011;64044;59.904;10.738;2023-06-14T14:13:21;3.05;;;2.38;;
74293;SDS011;64044;59.904;10.738;2023-06-14T14:15:47;3.38;;;2.88;;
74293;SDS011;64044;59.904;10.738;2023-06-14T14:18:14;3.20;;;2.67;;
74293;SDS011;64044;59.904;10.738;2023-06-14T14:20:40;4.13;;;3.38;;
74293;SDS011;64044;59.904;10.738;2023-06-14T14:23:06;3.47;;;2.78;;
74293;SDS011;64044;59.904;10.738;2023-06-14T14:25:31;5.57;;;3.35;;
74293;SDS011;64044;59.904;10.738;2023-06-14T14:27:57;6.38;;;3.13;;
74293;SDS011;64044;59.904;10.738;2023-06-14T14:30:23;5.07;;;3.00;;
74293;SDS011;64044;59.904;10.738;2023-06-14T14:32:49;3.58;;;2.83;;
74293;SDS011;64044;59.904;10.738;2023-06-14T14:35:18;6.13;;;3.33;;
74293;SDS011;64044;59.904;10.738;2023-06-14T14:37:44;4.72;;;3.40;;
74293;SDS011;64044;59.904;10.738;2023-06-14T14:40:10;6.40;;;3.42;;
74293;SDS011;64044;59.904;10.738;2023-06-14T14:42:37;3.53;;;3.03;;
74293;SDS011;64044;59.904;10.738;2023-06-14T14:45:03;9.02;;;3.70;;
74293;SDS011;64044;59.904;10.738;2023-06-14T14:47:29;5.07;;;3.35;;
74293;SDS011;64044;59.904;10.738;2023-06-14T14:49:55;7.68;;;3.53;;
74293;SDS011;64044;59.904;10.738;2023-06-14T14:52:20;3.25;;;2.83;;
74293;SDS011;64044;59.904;10.738;2023-06-14T14:54:46;4.75;;;3.05;;
74293;SDS011;64044;59.904;10.738;2023-06-14T14:57:12;4.50;;;3.88;;
74293;SDS011;64044;59.904;10.738;2023-06-14T14:59:37;4.15;;;3.70;;
74293;SDS011;64044;59.904;10.738;2023-06-14T15:02:03;3.67;;;2.70;;
74293;SDS011;64044;59.904;10.738;2023-06-14T15:04:29;4.70;;;3.10;;